createdAt,value
2023-04-14T00:01:28.310Z,100457.05
2023-04-14T00:03:57.550Z,100458.72
2023-04-14T00:06:27.440Z,100455.63
2023-04-14T00:08:56.219Z,100455.66
2023-04-14T00:11:24.375Z,100451.66
2023-04-14T00:13:52.576Z,100457.70
2023-04-14T00:16:22.012Z,100458.25
2023-04-14T00:18:50.977Z,100463.06
2023-04-14T00:21:19.192Z,100464.84
2023-04-14T00:23:47.702Z,100464.78
2023-04-14T00:26:16.013Z,100464.80
2023-04-14T00:28:44.988Z,100461.55
2023-04-14T00:31:13.594Z,100460.66
2023-04-14T00:33:41.798Z,100460.83
2023-04-14T00:36:09.952Z,100462.56
2023-04-14T00:38:40.183Z,100462.19
2023-04-14T00:41:08.782Z,100459.06
2023-04-14T00:43:37.909Z,100466.57
2023-04-14T00:46:07.253Z,100463.02
2023-04-14T00:48:36.147Z,100462.83
2023-04-14T00:51:05.507Z,100463.30
2023-04-14T00:53:35.365Z,100466.09
2023-04-14T00:56:03.860Z,100467.36
2023-04-14T00:58:32.039Z,100467.75
2023-04-14T01:01:00.419Z,100467.50
2023-04-14T01:03:32.180Z,100467.84
2023-04-14T01:06:00.890Z,100463.84
2023-04-14T01:08:29.214Z,100459.95
2023-04-14T01:11:08.328Z,100458.94
2023-04-14T01:13:59.135Z,100463.64
2023-04-14T01:16:32.354Z,100459.26
2023-04-14T01:19:20.794Z,100458.84
2023-04-14T01:21:51.435Z,100460.49
2023-04-14T01:24:32.646Z,100467.30
2023-04-14T01:27:11.393Z,100468.90
2023-04-14T01:29:42.907Z,100474.98
2023-04-14T01:32:11.973Z,100473.66
2023-04-14T01:34:49.543Z,100473.35
2023-04-14T01:37:34.158Z,100470.73
2023-04-14T01:40:06.078Z,100466.87
2023-04-14T01:42:36.357Z,100466.38
2023-04-14T01:45:12.338Z,100469.34
2023-04-14T01:47:42.236Z,100467.49
2023-04-14T01:50:11.480Z,100467.71
2023-04-14T01:52:43.245Z,100470.98
2023-04-14T01:55:11.705Z,100469.14
2023-04-14T01:57:42.417Z,100471.07
2023-04-14T02:00:11.392Z,100478.27
2023-04-14T02:02:44.714Z,100481.27
2023-04-14T02:05:14.283Z,100480.35
2023-04-14T02:07:46.940Z,100482.28
2023-04-14T02:10:16.244Z,100481.62
2023-04-14T02:12:53.901Z,100480.64
2023-04-14T02:15:41.988Z,100484.45
2023-04-14T02:18:10.522Z,100479.86
2023-04-14T02:20:43.485Z,100477.77
2023-04-14T02:23:28.453Z,100484.12
2023-04-14T02:26:01.068Z,100486.23
2023-04-14T02:28:34.191Z,100486.56
2023-04-14T02:31:05.780Z,100485.98
2023-04-14T02:33:35.522Z,100490.98
2023-04-14T02:36:06.786Z,100494.40
2023-04-14T02:38:38.886Z,100495.67
2023-04-14T02:41:14.774Z,100496.88
2023-04-14T02:43:47.625Z,100500.02
2023-04-14T02:46:17.086Z,100504.92
2023-04-14T02:48:46.438Z,100509.02
2023-04-14T02:51:15.589Z,100509.71
2023-04-14T02:53:44.332Z,100510.49
2023-04-14T02:56:18.438Z,100513.42
2023-04-14T02:58:47.021Z,100518.57
2023-04-14T03:01:16.106Z,100518.98
2023-04-14T03:03:47.066Z,100521.53
2023-04-14T03:06:15.936Z,100522.85
2023-04-14T03:08:44.415Z,100517.48
2023-04-14T03:11:14.748Z,100514.59
2023-04-14T03:13:45.136Z,100516.68
2023-04-14T03:16:14.173Z,100513.81
2023-04-14T03:18:42.598Z,100514.97
2023-04-14T03:21:11.612Z,100514.80
2023-04-14T03:23:40.141Z,100516.61
2023-04-14T03:26:11.855Z,100519.01
2023-04-14T03:28:42.855Z,100523.95
2023-04-14T03:31:11.675Z,100526.02
2023-04-14T03:33:46.978Z,100528.21
2023-04-14T03:36:16.470Z,100529.23
2023-04-14T03:38:44.673Z,100530.18
2023-04-14T03:41:13.794Z,100531.80
2023-04-14T03:43:42.136Z,100532.64
2023-04-14T03:46:15.081Z,100533.83
2023-04-14T03:48:44.484Z,100534.77
2023-04-14T03:51:14.603Z,100534.98
2023-04-14T03:53:44.096Z,100537.76
2023-04-14T03:56:13.812Z,100538.44
2023-04-14T03:58:48.142Z,100538.30
2023-04-14T04:01:19.639Z,100543.83
2023-04-14T04:03:49.620Z,100539.70
2023-04-14T04:06:20.693Z,100539.55
2023-04-14T04:08:49.154Z,100539.39
2023-04-14T04:11:19.126Z,100539.05
2023-04-14T04:13:48.907Z,100547.02
2023-04-14T04:16:19.605Z,100551.11
2023-04-14T04:18:49.179Z,100554.70
2023-04-14T04:21:20.632Z,100555.20
2023-04-14T04:23:52.545Z,100554.83
2023-04-14T04:26:21.180Z,100556.88
2023-04-14T04:28:58.455Z,100558.05
2023-04-14T04:31:28.305Z,100561.67
2023-04-14T04:33:58.362Z,100554.98
2023-04-14T04:36:29.419Z,100559.33
2023-04-14T04:38:58.915Z,100563.76
2023-04-14T04:41:29.090Z,100561.52
2023-04-14T04:43:59.725Z,100560.13
2023-04-14T04:46:53.905Z,100557.09
2023-04-14T04:49:26.835Z,100553.26
2023-04-14T04:51:57.110Z,100555.67
2023-04-14T04:54:27.350Z,100553.48
2023-04-14T04:56:56.727Z,100558.59
2023-04-14T04:59:26.156Z,100564.94
2023-04-14T05:01:54.667Z,100564.23
2023-04-14T05:04:24.125Z,100561.70
2023-04-14T05:06:52.956Z,100561.85
2023-04-14T05:09:27.827Z,100556.27
2023-04-14T05:11:58.156Z,100558.45
2023-04-14T05:14:27.497Z,100559.77
2023-04-14T05:16:57.111Z,100563.99
2023-04-14T05:19:25.757Z,100571.46
2023-04-14T05:21:55.881Z,100572.66
2023-04-14T05:24:24.058Z,100570.73
2023-04-14T05:27:12.289Z,100572.10
2023-04-14T05:29:42.351Z,100573.15
2023-04-14T05:32:13.025Z,100577.55
2023-04-14T05:34:42.058Z,100567.38
2023-04-14T05:37:12.814Z,100562.98
2023-04-14T05:39:41.346Z,100559.64
2023-04-14T05:42:09.532Z,100558.64
2023-04-14T05:44:39.150Z,100563.77
2023-04-14T05:47:07.900Z,100568.40
2023-04-14T05:49:36.975Z,100571.21
2023-04-14T05:52:08.927Z,100573.27
2023-04-14T05:54:42.575Z,100572.61
2023-04-14T05:57:11.864Z,100576.98
2023-04-14T05:59:40.397Z,100578.85
2023-04-14T06:02:08.904Z,100575.79
2023-04-14T06:04:38.155Z,100579.23
2023-04-14T06:07:07.863Z,100577.54
2023-04-14T06:09:42.972Z,100580.60
2023-04-14T06:12:13.003Z,100586.66
2023-04-14T06:14:46.521Z,100580.21
2023-04-14T06:17:28.729Z,100584.23
2023-04-14T06:19:57.437Z,100583.14
2023-04-14T06:22:29.649Z,100583.69
2023-04-14T06:24:58.530Z,100579.98
2023-04-14T06:27:35.867Z,100581.14
2023-04-14T06:30:09.599Z,100579.73
2023-04-14T06:32:42.040Z,100579.14
2023-04-14T06:35:29.718Z,100578.83
2023-04-14T06:38:02.243Z,100576.88
2023-04-14T06:40:31.578Z,100580.16
2023-04-14T06:43:00.880Z,100578.63
2023-04-14T06:45:30.158Z,100583.15
2023-04-14T06:47:59.246Z,100582.17
2023-04-14T06:50:36.519Z,100581.11
2023-04-14T06:53:07.631Z,100579.36
2023-04-14T06:55:45.896Z,100578.91
2023-04-14T06:59:06.377Z,100578.09
2023-04-14T07:01:55.572Z,100573.67
2023-04-14T07:04:45.878Z,100570.29
2023-04-14T07:07:24.736Z,100569.11
2023-04-14T07:10:01.138Z,100567.80
2023-04-14T07:12:32.554Z,100571.86
2023-04-14T07:15:03.915Z,100574.15
2023-04-14T07:17:36.789Z,100573.10
2023-04-14T07:20:11.768Z,100574.55
2023-04-14T07:22:41.071Z,100575.27
2023-04-14T07:25:12.826Z,100576.29
2023-04-14T07:27:49.770Z,100574.70
2023-04-14T07:30:35.203Z,100578.41
2023-04-14T07:33:06.185Z,100577.71
2023-04-14T07:35:36.812Z,100576.46
2023-04-14T07:38:06.082Z,100577.80
2023-04-14T07:40:36.799Z,100582.76
2023-04-14T07:43:21.497Z,100577.71
2023-04-14T07:45:53.608Z,100580.19
2023-04-14T07:48:26.906Z,100580.33
2023-04-14T07:50:58.482Z,100586.83
2023-04-14T07:53:27.420Z,100584.52
2023-04-14T07:55:55.858Z,100585.84
2023-04-14T07:58:29.320Z,100590.71
2023-04-14T08:00:59.160Z,100589.80
2023-04-14T08:03:28.077Z,100591.47
2023-04-14T08:05:57.647Z,100588.02
2023-04-14T08:08:31.104Z,100589.20
2023-04-14T08:11:00.531Z,100591.77
2023-04-14T08:13:29.209Z,100589.13
2023-04-14T08:15:57.641Z,100587.46
2023-04-14T08:18:36.296Z,100585.26
2023-04-14T08:21:05.049Z,100586.88
2023-04-14T08:23:40.989Z,100584.05
2023-04-14T08:26:14.112Z,100587.85
2023-04-14T08:28:43.431Z,100585.89
2023-04-14T08:31:16.672Z,100582.40
2023-04-14T08:33:47.788Z,100583.71
2023-04-14T08:36:16.432Z,100585.54
2023-04-14T08:38:47.400Z,100590.77
2023-04-14T08:41:22.726Z,100588.07
2023-04-14T08:43:51.174Z,100589.68
2023-04-14T08:46:27.629Z,100588.81
2023-04-14T08:49:34.558Z,100587.30
2023-04-14T08:52:06.943Z,100589.09
2023-04-14T08:54:37.505Z,100591.20
2023-04-14T08:57:06.706Z,100586.98
2023-04-14T08:59:43.854Z,100590.73
2023-04-14T09:02:21.297Z,100586.92
2023-04-14T09:04:51.178Z,100587.60
2023-04-14T09:07:21.969Z,100589.34
2023-04-14T09:09:54.241Z,100590.20
2023-04-14T09:12:22.718Z,100589.99
2023-04-14T09:14:52.333Z,100594.98
2023-04-14T09:17:22.072Z,100597.08
2023-04-14T09:20:35.431Z,100597.40
2023-04-14T09:22:41.420Z,100598.86
2023-04-14T09:25:10.441Z,100599.88
2023-04-14T09:27:39.781Z,100599.71
2023-04-14T09:30:08.872Z,100599.05
2023-04-14T09:32:38.889Z,100601.21
2023-04-14T09:35:10.022Z,100602.75
2023-04-14T09:37:45.377Z,100600.83
2023-04-14T09:40:31.045Z,100595.98
2023-04-14T09:43:01.443Z,100600.29
2023-04-14T09:45:43.170Z,100599.21
2023-04-14T09:48:21.944Z,100598.36
2023-04-14T09:51:09.710Z,100596.94
2023-04-14T09:53:41.392Z,100597.01
2023-04-14T09:56:16.536Z,100596.53
2023-04-14T09:58:47.815Z,100600.07
2023-04-14T10:01:21.133Z,100597.91
2023-04-14T10:04:17.383Z,100597.82
2023-04-14T10:06:50.451Z,100604.06
2023-04-14T10:09:24.745Z,100607.16
2023-04-14T10:12:19.608Z,100605.58
2023-04-14T10:14:51.788Z,100603.67
2023-04-14T10:17:20.912Z,100610.30
2023-04-14T10:19:50.032Z,100608.11
2023-04-14T10:22:24.615Z,100606.83
2023-04-14T10:24:54.674Z,100602.90
2023-04-14T10:27:34.839Z,100602.63
2023-04-14T10:30:12.435Z,100603.45
2023-04-14T10:32:44.376Z,100609.80
2023-04-14T10:35:21.210Z,100614.73
2023-04-14T10:37:51.648Z,100615.34
2023-04-14T10:40:21.585Z,100616.67
2023-04-14T10:42:51.362Z,100618.11
2023-04-14T10:45:19.881Z,100618.81
2023-04-14T10:47:50.088Z,100621.23
2023-04-14T10:50:22.594Z,100621.13
2023-04-14T10:52:56.233Z,100624.90
2023-04-14T10:55:25.908Z,100624.13
2023-04-14T10:58:06.615Z,100626.16
2023-04-14T11:00:38.357Z,100625.83
2023-04-14T11:03:13.018Z,100625.39
2023-04-14T11:05:48.089Z,100623.88
2023-04-14T11:08:20.025Z,100623.55
2023-04-14T11:10:51.490Z,100622.79
2023-04-14T11:13:21.596Z,100623.73
2023-04-14T11:15:57.283Z,100622.42
2023-04-14T11:18:30.222Z,100626.25
2023-04-14T11:21:08.092Z,100621.56
2023-04-14T11:23:41.394Z,100621.30
2023-04-14T11:26:14.342Z,100618.22
2023-04-14T11:28:47.186Z,100620.33
2023-04-14T11:31:22.520Z,100622.29
2023-04-14T11:33:52.943Z,100621.69
2023-04-14T11:36:21.517Z,100617.70
2023-04-14T11:38:53.380Z,100616.23
2023-04-14T11:41:25.879Z,100610.02
2023-04-14T11:43:57.820Z,100611.96
2023-04-14T11:46:27.478Z,100609.58
2023-04-14T11:49:00.898Z,100608.83
2023-04-14T11:51:33.853Z,100610.30
2023-04-14T11:54:04.161Z,100613.02
2023-04-14T11:56:32.690Z,100612.16
2023-04-14T11:59:05.310Z,100614.65
2023-04-14T12:01:34.583Z,100618.16
2023-04-14T12:04:04.675Z,100617.81
2023-04-14T12:06:40.920Z,100615.19
2023-04-14T12:09:11.837Z,100615.05
2023-04-14T12:11:40.740Z,100620.20
2023-04-14T12:14:09.393Z,100627.48
2023-04-14T12:16:38.347Z,100627.38
2023-04-14T12:19:07.852Z,100623.02
2023-04-14T12:21:36.769Z,100620.44
2023-04-14T12:24:05.592Z,100621.67
2023-04-14T12:26:36.523Z,100623.94
2023-04-14T12:29:04.857Z,100620.53
2023-04-14T12:31:33.335Z,100618.81
2023-04-14T12:34:04.039Z,100619.83
2023-04-14T12:36:48.794Z,100627.65
2023-04-14T12:39:22.259Z,100628.22
2023-04-14T12:41:51.591Z,100621.38
2023-04-14T12:44:24.676Z,100619.83
2023-04-14T12:46:54.026Z,100623.00
2023-04-14T12:49:36.825Z,100625.05
2023-04-14T12:52:08.360Z,100625.35
2023-04-14T12:54:52.400Z,100619.68
2023-04-14T12:57:22.076Z,100621.02
2023-04-14T12:59:50.904Z,100618.36
2023-04-14T13:02:19.854Z,100617.67
2023-04-14T13:04:49.540Z,100617.80
2023-04-14T13:07:20.357Z,100614.81
2023-04-14T13:09:50.774Z,100615.71
2023-04-14T13:12:19.625Z,100617.80
2023-04-14T13:14:48.037Z,100617.51
2023-04-14T13:17:16.809Z,100613.59
2023-04-14T13:19:46.315Z,100619.21
2023-04-14T13:22:16.745Z,100625.55
2023-04-14T13:24:45.387Z,100628.17
2023-04-14T13:27:13.587Z,100629.19
2023-04-14T13:29:46.684Z,100633.41
2023-04-14T13:32:15.542Z,100636.86
2023-04-14T13:34:44.017Z,100643.63
2023-04-14T13:37:12.745Z,100645.11
2023-04-14T13:39:42.009Z,100646.29
2023-04-14T13:42:10.566Z,100646.95
2023-04-14T13:44:42.371Z,100650.96
2023-04-14T13:47:11.164Z,100650.48
2023-04-14T13:49:39.942Z,100647.64
2023-04-14T13:52:08.596Z,100649.48
2023-04-14T13:54:37.015Z,100648.35
2023-04-14T13:57:05.488Z,100646.34
2023-04-14T13:59:33.803Z,100649.87
2023-04-14T14:02:02.324Z,100646.37
2023-04-14T14:04:36.295Z,100645.10
2023-04-14T14:07:04.798Z,100647.95
2023-04-14T14:09:33.598Z,100648.98
2023-04-14T14:12:02.742Z,100651.98
2023-04-14T14:14:31.770Z,100653.08
2023-04-14T14:17:00.350Z,100650.51
2023-04-14T14:19:29.979Z,100652.52
2023-04-14T14:21:58.400Z,100652.81
2023-04-14T14:24:27.234Z,100649.48
2023-04-14T14:26:56.937Z,100653.73
2023-04-14T14:29:25.203Z,100658.23
2023-04-14T14:31:53.369Z,100654.89
2023-04-14T14:34:21.548Z,100654.63
2023-04-14T14:37:00.846Z,100654.00
2023-04-14T14:39:33.593Z,100653.59
2023-04-14T14:42:02.255Z,100656.73
2023-04-14T14:44:31.605Z,100662.46
2023-04-14T14:47:03.538Z,100665.90
2023-04-14T14:49:33.834Z,100667.27
2023-04-14T14:52:04.326Z,100672.25
2023-04-14T14:54:34.036Z,100672.83
2023-04-14T14:57:02.871Z,100671.13
2023-04-14T14:59:31.132Z,100667.38
2023-04-14T15:01:59.988Z,100670.02
2023-04-14T15:04:28.636Z,100669.38
2023-04-14T15:06:57.092Z,100663.16
2023-04-14T15:09:25.314Z,100661.67
2023-04-14T15:11:54.079Z,100667.20
2023-04-14T15:14:22.829Z,100665.64
2023-04-14T15:16:51.068Z,100659.50
2023-04-14T15:19:20.900Z,100658.46
2023-04-14T15:21:49.276Z,100652.80
2023-04-14T15:24:17.754Z,100655.54
2023-04-14T15:26:47.440Z,100662.06
2023-04-14T15:29:19.598Z,100661.65
2023-04-14T15:31:48.336Z,100663.11
2023-04-14T15:34:17.069Z,100662.88
2023-04-14T15:36:45.407Z,100663.20
2023-04-14T15:39:14.689Z,100662.02
2023-04-14T15:41:44.608Z,100666.86
2023-04-14T15:44:12.736Z,100667.73
2023-04-14T15:46:41.308Z,100669.20
2023-04-14T15:49:11.590Z,100676.92
2023-04-14T15:51:41.150Z,100681.20
2023-04-14T15:54:09.427Z,100681.08
2023-04-14T15:56:37.742Z,100677.81
2023-04-14T15:59:06.981Z,100678.04
2023-04-14T16:01:35.241Z,100680.67
2023-04-14T16:04:04.896Z,100684.17
2023-04-14T16:06:36.513Z,100683.35
2023-04-14T16:09:05.086Z,100683.52
2023-04-14T16:11:33.831Z,100684.36
2023-04-14T16:14:03.263Z,100685.05
2023-04-14T16:16:32.793Z,100687.02
2023-04-14T16:19:01.225Z,100687.23
2023-04-14T16:21:29.706Z,100681.65
2023-04-14T16:23:58.078Z,100679.61
2023-04-14T16:26:26.420Z,100681.86
2023-04-14T16:29:02.796Z,100678.84
2023-04-14T16:31:31.783Z,100681.06
2023-04-14T16:34:00.651Z,100686.53
2023-04-14T16:36:29.639Z,100687.96
2023-04-14T16:38:58.728Z,100690.73
2023-04-14T16:41:27.704Z,100690.04
2023-04-14T16:43:55.945Z,100695.41
2023-04-14T16:46:25.181Z,100704.26
2023-04-14T16:48:54.533Z,100706.02
2023-04-14T16:51:28.244Z,100710.52
2023-04-14T16:53:56.769Z,100711.61
2023-04-14T16:56:25.045Z,100723.55
2023-04-14T16:58:53.224Z,100724.23
2023-04-14T17:01:21.581Z,100723.15
2023-04-14T17:03:50.709Z,100720.97
2023-04-14T17:06:19.330Z,100725.14
2023-04-14T17:08:48.509Z,100731.84
2023-04-14T17:11:16.702Z,100730.27
2023-04-14T17:13:45.007Z,100733.84
2023-04-14T17:16:20.232Z,100739.44
2023-04-14T17:18:52.002Z,100745.74
2023-04-14T17:21:20.178Z,100748.52
2023-04-14T17:23:55.612Z,100748.48
2023-04-14T17:26:24.845Z,100758.48
2023-04-14T17:28:53.009Z,100766.70
2023-04-14T17:31:21.337Z,100768.01
2023-04-14T17:33:50.079Z,100768.96
2023-04-14T17:36:24.298Z,100769.95
2023-04-14T17:38:54.792Z,100770.27
2023-04-14T17:41:24.607Z,100769.61
2023-04-14T17:43:52.908Z,100776.99
2023-04-14T17:46:28.123Z,100780.10
2023-04-14T17:48:57.179Z,100779.71
2023-04-14T17:51:25.344Z,100776.22
2023-04-14T17:53:56.025Z,100772.95
2023-04-14T17:56:25.893Z,100773.79
2023-04-14T17:58:54.065Z,100771.17
2023-04-14T18:01:24.132Z,100776.34
2023-04-14T18:03:52.732Z,100778.87
2023-04-14T18:06:21.225Z,100778.01
2023-04-14T18:08:51.822Z,100774.78
2023-04-14T18:11:24.894Z,100780.46
2023-04-14T18:13:53.937Z,100785.11
2023-04-14T18:16:29.357Z,100791.08
2023-04-14T18:18:59.099Z,100793.27
2023-04-14T18:21:29.057Z,100801.63
2023-04-14T18:26:29.819Z,100815.94
2023-04-14T18:28:58.113Z,100829.06
2023-04-14T18:31:27.224Z,100849.61
2023-04-14T18:34:16.933Z,100850.30
2023-04-14T18:36:45.496Z,100853.05
2023-04-14T18:39:16.416Z,100852.70
2023-04-14T18:41:46.314Z,100849.47
2023-04-14T18:44:17.239Z,100845.63
2023-04-14T18:46:45.448Z,100853.71
2023-04-14T18:49:13.841Z,100859.63
2023-04-14T18:51:42.418Z,100853.48
2023-04-14T18:54:10.672Z,100851.67
2023-04-14T18:56:42.645Z,100849.50
2023-04-14T18:59:11.479Z,100847.00
2023-04-14T19:01:43.002Z,100849.46
2023-04-14T19:04:11.346Z,100851.21
2023-04-14T19:06:40.607Z,100845.11
2023-04-14T19:09:08.984Z,100845.73
2023-04-14T19:11:39.051Z,100849.40
2023-04-14T19:14:08.909Z,100856.14
2023-04-14T19:16:37.107Z,100852.30
2023-04-14T19:19:06.460Z,100852.61
2023-04-14T19:21:34.704Z,100852.61
2023-04-14T19:24:02.942Z,100859.79
2023-04-14T19:26:31.149Z,100858.49
2023-04-14T19:29:01.166Z,100857.31
2023-04-14T19:31:31.439Z,100861.67
2023-04-14T19:33:59.602Z,100854.36
2023-04-14T19:36:29.368Z,100846.15
2023-04-14T19:38:57.825Z,100844.15
2023-04-14T19:41:30.161Z,100843.17
2023-04-14T19:43:58.881Z,100849.13
2023-04-14T19:46:27.457Z,100847.16
2023-04-14T19:48:59.228Z,100834.65
2023-04-14T19:51:28.939Z,100832.83
2023-04-14T19:53:58.816Z,100839.17
2023-04-14T19:56:28.449Z,100834.98
2023-04-14T19:58:58.511Z,100842.38
2023-04-14T20:01:27.353Z,100847.12
2023-04-14T20:04:11.050Z,100855.54
2023-04-14T20:06:41.589Z,100856.53
2023-04-14T20:09:10.253Z,100851.08
2023-04-14T20:11:38.483Z,100856.34
2023-04-14T20:14:06.723Z,100857.54
2023-04-14T20:16:40.896Z,100861.23
2023-04-14T20:19:10.084Z,100867.80
2023-04-14T20:21:38.739Z,100865.58
2023-04-14T20:24:06.877Z,100858.83
2023-04-14T20:26:35.203Z,100859.86
2023-04-14T20:29:05.430Z,100867.80
2023-04-14T20:31:33.711Z,100869.77
2023-04-14T20:34:04.273Z,100874.48
2023-04-14T20:36:37.959Z,100873.58
2023-04-14T20:39:06.274Z,100878.80
2023-04-14T20:41:37.727Z,100884.16
2023-04-14T20:44:06.465Z,100879.59
2023-04-14T20:46:35.313Z,100876.25
2023-04-14T20:49:04.404Z,100880.98
2023-04-14T20:51:34.067Z,100879.40
2023-04-14T20:54:02.792Z,100880.45
2023-04-14T20:56:35.104Z,100875.08
2023-04-14T20:59:03.927Z,100877.73
2023-04-14T21:01:32.682Z,100875.63
2023-04-14T21:04:01.218Z,100871.15
2023-04-14T21:06:32.420Z,100873.18
2023-04-14T21:09:02.012Z,100883.90
2023-04-14T21:11:30.650Z,100886.92
2023-04-14T21:15:42.137Z,100886.30
2023-04-14T21:16:47.670Z,100882.11
2023-04-14T21:19:16.396Z,100886.11
2023-04-14T21:21:46.212Z,100885.34
2023-04-14T21:24:14.799Z,100887.96
2023-04-14T21:26:42.910Z,100883.59
2023-04-14T21:29:14.649Z,100887.53
2023-04-14T21:31:45.254Z,100885.92
2023-04-14T21:34:13.717Z,100882.26
2023-04-14T21:36:41.915Z,100883.34
2023-04-14T21:39:10.126Z,100876.14
2023-04-14T21:41:38.234Z,100873.38
2023-04-14T21:44:07.652Z,100875.35
2023-04-14T21:46:36.774Z,100879.24
2023-04-14T21:49:05.376Z,100878.98
2023-04-14T21:51:33.671Z,100876.47
2023-04-14T21:54:02.665Z,100877.33
2023-04-14T21:56:31.648Z,100886.09
2023-04-14T21:59:00.233Z,100886.46
2023-04-14T22:01:30.087Z,100881.70
2023-04-14T22:04:00.556Z,100884.81
2023-04-14T22:06:29.600Z,100883.93
2023-04-14T22:09:01.927Z,100884.17
2023-04-14T22:11:32.258Z,100885.98
2023-04-14T22:14:02.948Z,100887.79
2023-04-14T22:16:38.027Z,100888.75
2023-04-14T22:19:09.211Z,100890.71
2023-04-14T22:21:37.867Z,100889.35
2023-04-14T22:24:06.425Z,100891.73
2023-04-14T22:26:35.896Z,100893.33
2023-04-14T22:29:04.474Z,100899.28
2023-04-14T22:31:33.115Z,100901.08
2023-04-14T22:34:02.749Z,100904.75
2023-04-14T22:36:30.981Z,100908.79
2023-04-14T22:38:59.302Z,100902.48
2023-04-14T22:41:27.965Z,100901.81
2023-04-14T22:43:56.889Z,100904.85
2023-04-14T22:46:27.976Z,100900.60
2023-04-14T22:48:57.033Z,100898.63
2023-04-14T22:51:25.227Z,100895.16
2023-04-14T22:53:54.206Z,100893.02
2023-04-14T22:56:24.768Z,100892.23
2023-04-14T22:58:53.015Z,100891.67
2023-04-14T23:01:24.558Z,100884.09
2023-04-14T23:03:53.697Z,100881.64
2023-04-14T23:06:23.021Z,100886.06
2023-04-14T23:08:51.295Z,100889.09
2023-04-14T23:11:21.061Z,100886.55
2023-04-14T23:13:50.039Z,100883.70
2023-04-14T23:16:22.454Z,100879.17
2023-04-14T23:18:53.018Z,100880.96
2023-04-14T23:21:25.069Z,100880.52
2023-04-14T23:23:53.285Z,100880.02
2023-04-14T23:26:27.563Z,100878.89
2023-04-14T23:28:58.031Z,100878.66
2023-04-14T23:31:28.361Z,100884.89
2023-04-14T23:33:59.442Z,100886.49
2023-04-14T23:36:28.144Z,100885.10
2023-04-14T23:38:56.615Z,100882.73
2023-04-14T23:41:28.254Z,100875.96
2023-04-14T23:43:57.108Z,100878.39
2023-04-14T23:46:25.381Z,100878.07
2023-04-14T23:48:54.400Z,100881.98
2023-04-14T23:51:24.901Z,100884.57
2023-04-14T23:53:53.388Z,100881.06
2023-04-14T23:56:24.308Z,100878.16
2023-04-14T23:58:53.247Z,100877.70
